Huancavelica, Peru
Current Conditions -  °F | °C
As of 5:00 PM on Wednesday 28 Jan 2015 (Local Time) from SPHO Reporting Station
Scattered Clouds Scattered Clouds  
Wind Chill: 64°   Ceiling: Unl
Heat Index: 64°   Visibility: 6mi
Dew Point: 52°   Wind: 3mph
Humidity: 64%   Direction: NA
Pressure: 30.21"   Gusts: NA
Location:  12.79°S, 74.99°W
Report Text: SPHO 282200Z VRB03KT 9999 FEW040 SCT100 18/11 Q1023 RMKTMAX 20.0 PP000
Loading
Personal Weather Stations






























Interactive Weather Map New forecast layout! Learn more

10-Day Weather Forecast

Advertisements
Track Severe Weather on mobile